createdAt,value
2022-12-05T00:01:36.024Z,83.87
2022-12-05T00:04:06.071Z,83.90
2022-12-05T00:06:36.321Z,83.46
2022-12-05T00:09:04.655Z,83.73
2022-12-05T00:11:34.550Z,83.39
2022-12-05T00:14:03.222Z,83.76
2022-12-05T00:16:32.376Z,83.39
2022-12-05T00:19:00.122Z,83.63
2022-12-05T00:21:29.158Z,83.55
2022-12-05T00:23:59.895Z,83.44
2022-12-05T00:26:28.372Z,83.85
2022-12-05T00:28:56.980Z,84.04
2022-12-05T00:31:25.453Z,83.44
2022-12-05T00:33:53.522Z,83.57
2022-12-05T00:36:22.414Z,83.56
2022-12-05T00:38:49.797Z,83.95
2022-12-05T00:41:20.156Z,83.49
2022-12-05T00:43:47.931Z,83.90
2022-12-05T00:46:17.734Z,83.68
2022-12-05T00:48:45.188Z,83.72
2022-12-05T00:51:16.548Z,83.93
2022-12-05T00:53:44.746Z,83.51
2022-12-05T00:56:14.726Z,83.92
2022-12-05T00:58:44.038Z,83.87
2022-12-05T01:01:13.637Z,83.95
2022-12-05T01:03:42.114Z,83.76
2022-12-05T01:06:10.609Z,83.86
2022-12-05T01:08:38.176Z,83.99
2022-12-05T01:11:07.265Z,83.42
2022-12-05T01:13:34.669Z,83.67
2022-12-05T01:16:03.777Z,83.49
2022-12-05T01:18:31.417Z,84.36
2022-12-05T01:20:58.930Z,84.10
2022-12-05T01:23:26.109Z,83.90
2022-12-05T01:25:53.938Z,84.27
2022-12-05T01:28:21.445Z,84.08
2022-12-05T01:30:50.037Z,83.58
2022-12-05T01:33:18.636Z,83.50
2022-12-05T01:35:45.795Z,83.87
2022-12-05T01:38:13.691Z,84.18
2022-12-05T01:40:42.516Z,83.64
2022-12-05T01:43:15.154Z,83.63
2022-12-05T01:45:44.196Z,83.62
2022-12-05T01:48:14.140Z,83.77
2022-12-05T01:50:43.485Z,83.59
2022-12-05T01:53:10.978Z,83.97
2022-12-05T01:55:38.708Z,83.56
2022-12-05T01:58:09.294Z,83.91
2022-12-05T02:00:36.698Z,84.10
2022-12-05T02:03:08.207Z,84.27
2022-12-05T02:05:37.455Z,83.78
2022-12-05T02:08:08.775Z,84.24
2022-12-05T02:10:39.128Z,84.31
2022-12-05T02:13:20.745Z,83.96
2022-12-05T02:15:56.982Z,83.72
2022-12-05T02:18:38.506Z,84.00
2022-12-05T02:21:33.730Z,84.26
2022-12-05T02:24:27.964Z,83.57
2022-12-05T02:27:03.870Z,84.18
2022-12-05T02:29:52.491Z,83.88
2022-12-05T02:32:31.978Z,83.81
2022-12-05T02:35:05.998Z,84.27
2022-12-05T02:37:43.058Z,84.40
2022-12-05T02:40:14.880Z,84.19
2022-12-05T02:42:50.580Z,83.78
2022-12-05T02:45:24.803Z,83.89
2022-12-05T02:47:54.458Z,83.87
2022-12-05T02:50:25.444Z,83.97
2022-12-05T02:52:56.786Z,84.02
2022-12-05T02:55:26.964Z,84.37
2022-12-05T02:57:58.622Z,84.26
2022-12-05T03:00:27.349Z,84.35
2022-12-05T03:02:58.408Z,84.45
2022-12-05T03:05:38.104Z,83.85
2022-12-05T03:08:08.549Z,84.33
2022-12-05T03:10:39.141Z,84.41
2022-12-05T03:13:12.951Z,84.17
2022-12-05T03:15:47.762Z,84.13
2022-12-05T03:18:21.707Z,84.08
2022-12-05T03:20:55.269Z,84.12
2022-12-05T03:23:28.502Z,83.88
2022-12-05T03:26:05.270Z,83.94
2022-12-05T03:28:41.742Z,83.90
2022-12-05T03:31:14.923Z,83.66
2022-12-05T03:33:45.677Z,84.27
2022-12-05T03:36:18.208Z,84.29
2022-12-05T03:38:50.766Z,84.21
2022-12-05T03:41:26.938Z,84.12
2022-12-05T03:43:57.876Z,83.83
2022-12-05T03:46:30.521Z,84.48
2022-12-05T03:49:03.897Z,83.83
2022-12-05T03:51:36.201Z,84.02
2022-12-05T03:54:08.637Z,84.01
2022-12-05T03:56:43.233Z,83.85
2022-12-05T03:59:12.969Z,83.76
2022-12-05T04:01:43.951Z,84.23
2022-12-05T04:04:19.050Z,84.43
2022-12-05T04:06:50.115Z,84.22
2022-12-05T04:09:21.976Z,83.92
2022-12-05T04:11:53.983Z,83.85
2022-12-05T04:14:26.630Z,83.80
2022-12-05T04:17:03.465Z,84.43
2022-12-05T04:19:55.287Z,84.31
2022-12-05T04:22:25.050Z,84.50
2022-12-05T04:25:13.344Z,84.24
2022-12-05T04:27:48.166Z,83.66
2022-12-05T04:30:19.209Z,84.18
2022-12-05T04:32:53.567Z,84.23
2022-12-05T04:35:25.755Z,84.09
2022-12-05T04:37:58.446Z,83.70
2022-12-05T04:40:34.085Z,84.02
2022-12-05T04:43:03.206Z,83.90
2022-12-05T04:45:32.926Z,84.49
2022-12-05T04:48:04.302Z,83.61
2022-12-05T04:50:34.955Z,83.99
2022-12-05T04:53:03.815Z,83.88
2022-12-05T04:55:33.748Z,84.47
2022-12-05T04:58:07.900Z,84.39
2022-12-05T05:00:41.752Z,84.29
2022-12-05T05:03:16.962Z,84.06
2022-12-05T05:05:48.143Z,84.16
2022-12-05T05:08:20.251Z,84.10
2022-12-05T05:10:57.548Z,83.99
2022-12-05T05:13:25.170Z,84.45
2022-12-05T05:15:52.540Z,84.01
2022-12-05T05:18:21.210Z,84.10
2022-12-05T05:20:48.549Z,84.18
2022-12-05T05:23:15.861Z,84.45
2022-12-05T05:25:43.166Z,84.13
2022-12-05T05:28:10.503Z,84.05
2022-12-05T05:30:37.764Z,84.12
2022-12-05T05:33:05.126Z,84.50
2022-12-05T05:35:38.620Z,84.25
2022-12-05T05:38:06.126Z,84.40
2022-12-05T05:40:36.623Z,83.91
2022-12-05T05:43:04.679Z,83.90
2022-12-05T05:45:32.049Z,84.69
2022-12-05T05:47:59.421Z,84.51
2022-12-05T05:50:26.892Z,84.80
2022-12-05T05:52:55.911Z,84.00
2022-12-05T05:55:23.177Z,84.11
2022-12-05T05:57:50.706Z,84.37
2022-12-05T06:00:18.584Z,84.19
2022-12-05T06:02:46.057Z,84.21
2022-12-05T06:05:13.315Z,84.39
2022-12-05T06:07:40.871Z,84.13
2022-12-05T06:10:10.174Z,84.55
2022-12-05T06:12:37.355Z,83.77
2022-12-05T06:15:05.518Z,83.37
2022-12-05T06:17:32.968Z,83.73
2022-12-05T06:20:00.351Z,83.97
2022-12-05T06:22:27.857Z,83.72
2022-12-05T06:24:55.080Z,83.70
2022-12-05T06:27:23.890Z,83.48
2022-12-05T06:29:51.437Z,83.50
2022-12-05T06:32:18.632Z,83.23
2022-12-05T06:34:45.894Z,83.00
2022-12-05T06:37:13.145Z,82.96
2022-12-05T06:39:40.687Z,82.71
2022-12-05T06:42:08.213Z,82.33
2022-12-05T06:44:43.481Z,82.37
2022-12-05T06:47:10.819Z,82.08
2022-12-05T06:50:01.471Z,81.76
2022-12-05T06:52:36.049Z,81.80
2022-12-05T06:55:04.685Z,81.69
2022-12-05T06:57:32.129Z,81.45
2022-12-05T07:00:19.246Z,81.23
2022-12-05T07:02:51.134Z,80.82
2022-12-05T07:05:19.097Z,80.86
2022-12-05T07:07:47.105Z,80.42
2022-12-05T07:10:14.390Z,80.56
2022-12-05T07:12:41.742Z,79.88
2022-12-05T07:15:10.993Z,79.62
2022-12-05T07:17:40.252Z,79.48
2022-12-05T07:20:12.822Z,79.17
2022-12-05T07:22:40.174Z,78.86
2022-12-05T07:25:08.725Z,78.68
2022-12-05T07:27:36.124Z,78.67
2022-12-05T07:30:05.653Z,78.42
2022-12-05T07:32:35.095Z,78.31
2022-12-05T07:35:02.472Z,78.26
2022-12-05T07:37:32.437Z,78.17
2022-12-05T07:40:02.422Z,77.72
2022-12-05T07:42:31.135Z,77.42
2022-12-05T07:45:01.816Z,77.18
2022-12-05T07:47:30.088Z,76.93
2022-12-05T07:49:59.973Z,76.48
2022-12-05T07:52:28.479Z,76.45
2022-12-05T07:54:55.801Z,76.26
2022-12-05T07:57:23.003Z,76.26
2022-12-05T07:59:50.457Z,75.96
2022-12-05T08:02:17.903Z,76.27
2022-12-05T08:04:45.197Z,76.27
2022-12-05T08:07:13.861Z,76.13
2022-12-05T08:09:41.290Z,76.20
2022-12-05T08:12:09.015Z,76.24
2022-12-05T08:14:36.645Z,76.28
2022-12-05T08:17:04.950Z,76.14
2022-12-05T08:19:32.378Z,76.25
2022-12-05T08:21:59.679Z,76.11
2022-12-05T08:24:28.244Z,76.23
2022-12-05T08:26:55.595Z,76.13
2022-12-05T08:29:23.058Z,75.98
2022-12-05T08:31:51.579Z,76.12
2022-12-05T08:34:20.861Z,76.15
2022-12-05T08:36:48.954Z,76.24
2022-12-05T08:39:18.459Z,75.96
2022-12-05T08:41:48.849Z,76.37
2022-12-05T08:44:17.239Z,76.29
2022-12-05T08:46:46.527Z,76.27
2022-12-05T08:49:14.046Z,76.00
2022-12-05T08:51:42.180Z,75.62
2022-12-05T08:54:09.881Z,75.65
2022-12-05T08:56:38.756Z,75.25
2022-12-05T08:59:07.857Z,75.17
2022-12-05T09:01:38.813Z,74.89
2022-12-05T09:04:07.073Z,74.88
2022-12-05T09:06:35.811Z,74.58
2022-12-05T09:09:05.708Z,73.96
2022-12-05T09:11:35.818Z,73.43
2022-12-05T09:14:05.006Z,73.25
2022-12-05T09:16:38.523Z,73.20
2022-12-05T09:19:12.733Z,72.29
2022-12-05T09:21:40.137Z,72.15
2022-12-05T09:24:07.604Z,72.14
2022-12-05T09:26:34.889Z,71.37
2022-12-05T09:29:03.546Z,70.99
2022-12-05T09:31:31.764Z,71.13
2022-12-05T09:34:00.923Z,70.39
2022-12-05T09:36:30.125Z,70.41
2022-12-05T09:39:01.175Z,71.00
2022-12-05T09:42:08.145Z,71.10
2022-12-05T09:44:57.953Z,70.42
2022-12-05T09:47:34.774Z,70.54
2022-12-05T09:50:14.307Z,70.57
2022-12-05T09:52:46.120Z,70.79
2022-12-05T09:55:15.925Z,70.51
2022-12-05T09:57:48.799Z,70.86
2022-12-05T10:00:16.818Z,70.52
2022-12-05T10:02:55.182Z,70.13
2022-12-05T10:05:29.736Z,69.95
2022-12-05T10:08:04.964Z,69.90
2022-12-05T10:10:43.252Z,69.88
2022-12-05T10:13:31.034Z,69.58
2022-12-05T10:16:03.105Z,69.16
2022-12-05T10:18:38.980Z,69.23
2022-12-05T10:21:15.911Z,68.92
2022-12-05T10:23:59.935Z,68.90
2022-12-05T10:26:31.127Z,68.87
2022-12-05T10:29:07.837Z,69.23
2022-12-05T10:31:37.905Z,68.56
2022-12-05T10:34:15.144Z,68.38
2022-12-05T10:36:51.277Z,68.69
2022-12-05T10:39:19.523Z,68.78
2022-12-05T10:41:46.997Z,68.94
2022-12-05T10:44:14.307Z,68.50
2022-12-05T10:46:42.060Z,68.92
2022-12-05T10:49:11.819Z,68.67
2022-12-05T10:51:40.038Z,68.66
2022-12-05T10:54:17.496Z,68.36
2022-12-05T10:56:46.505Z,68.73
2022-12-05T10:59:16.432Z,68.72
2022-12-05T11:01:49.358Z,68.30
2022-12-05T11:04:26.830Z,68.44
2022-12-05T11:06:59.477Z,68.74
2022-12-05T11:09:30.283Z,68.70
2022-12-05T11:12:03.196Z,69.13
2022-12-05T11:14:31.414Z,69.11
2022-12-05T11:17:01.350Z,68.73
2022-12-05T11:19:31.197Z,68.56
2022-12-05T11:21:59.329Z,69.19
2022-12-05T11:24:29.608Z,68.83
2022-12-05T11:26:58.277Z,69.10
2022-12-05T11:29:31.260Z,68.90
2022-12-05T11:31:59.132Z,68.82
2022-12-05T11:34:31.647Z,68.60
2022-12-05T11:37:05.244Z,69.26
2022-12-05T11:39:34.061Z,68.49
2022-12-05T11:42:23.479Z,69.12
2022-12-05T11:45:08.817Z,69.11
2022-12-05T11:47:47.363Z,68.78
2022-12-05T11:50:29.459Z,68.92
2022-12-05T11:53:09.154Z,68.93
2022-12-05T11:55:44.061Z,68.74
2022-12-05T11:58:30.740Z,68.68
2022-12-05T12:01:11.173Z,68.90
2022-12-05T12:03:55.366Z,69.34
2022-12-05T12:06:32.902Z,69.04
2022-12-05T12:09:21.441Z,68.93
2022-12-05T12:11:58.819Z,69.29
2022-12-05T12:14:34.032Z,68.86
2022-12-05T12:17:16.499Z,69.05
2022-12-05T12:19:55.836Z,69.21
2022-12-05T12:22:41.248Z,69.15
2022-12-05T12:25:30.272Z,69.54
2022-12-05T12:28:14.161Z,69.74
2022-12-05T12:30:53.981Z,69.66
2022-12-05T12:33:32.842Z,70.01
2022-12-05T12:36:12.523Z,70.18
2022-12-05T12:39:08.694Z,70.24
2022-12-05T12:41:51.281Z,70.73
2022-12-05T12:44:45.612Z,70.68
2022-12-05T12:47:20.036Z,70.42
2022-12-05T12:49:59.846Z,70.24
2022-12-05T12:52:37.607Z,70.82
2022-12-05T12:55:19.059Z,70.91
2022-12-05T12:58:05.186Z,70.57
2022-12-05T13:00:46.336Z,71.17
2022-12-05T13:03:20.033Z,70.75
2022-12-05T13:05:51.262Z,71.40
2022-12-05T13:08:27.568Z,71.33
2022-12-05T13:10:57.158Z,71.33
2022-12-05T13:13:32.596Z,70.96
2022-12-05T13:16:04.169Z,70.97
2022-12-05T13:18:31.788Z,71.08
2022-12-05T13:21:04.635Z,71.19
2022-12-05T13:23:36.613Z,71.38
2022-12-05T13:26:09.926Z,71.71
2022-12-05T13:28:42.324Z,71.41
2022-12-05T13:31:14.314Z,71.66
2022-12-05T13:33:44.775Z,71.75
2022-12-05T13:36:32.260Z,71.55
2022-12-05T13:39:20.104Z,71.90
2022-12-05T13:42:09.523Z,72.30
2022-12-05T13:44:40.741Z,72.23
2022-12-05T13:47:29.491Z,72.31
2022-12-05T13:50:03.655Z,72.51
2022-12-05T13:52:39.062Z,72.73
2022-12-05T13:55:22.594Z,73.07
2022-12-05T13:57:53.120Z,72.47
2022-12-05T14:00:29.787Z,73.12
2022-12-05T14:03:04.638Z,72.64
2022-12-05T14:05:47.114Z,72.92
2022-12-05T14:08:51.547Z,72.79
2022-12-05T14:11:19.116Z,72.83
2022-12-05T14:13:46.546Z,72.93
2022-12-05T14:16:48.102Z,72.91
2022-12-05T14:19:48.836Z,73.46
2022-12-05T14:22:39.518Z,73.40
2022-12-05T14:25:17.857Z,73.42
2022-12-05T14:27:54.690Z,73.31
2022-12-05T14:30:26.038Z,73.18
2022-12-05T14:32:54.892Z,73.27
2022-12-05T14:35:29.535Z,73.53
2022-12-05T14:38:01.843Z,73.46
2022-12-05T14:40:33.651Z,73.64
2022-12-05T14:43:03.837Z,73.95
2022-12-05T14:45:37.350Z,73.68
2022-12-05T14:48:05.690Z,73.82
2022-12-05T14:50:40.737Z,73.74
2022-12-05T14:53:26.467Z,73.87
2022-12-05T14:55:56.419Z,73.83
2022-12-05T14:58:36.069Z,74.02
2022-12-05T15:01:08.435Z,74.10
2022-12-05T15:03:39.662Z,74.55
2022-12-05T15:06:15.986Z,74.23
2022-12-05T15:08:49.394Z,74.57
2022-12-05T15:11:28.544Z,74.49
2022-12-05T15:14:01.497Z,74.81
2022-12-05T15:16:30.154Z,74.60
2022-12-05T15:19:02.219Z,74.70
2022-12-05T15:21:34.124Z,74.85
2022-12-05T15:24:04.922Z,74.99
2022-12-05T15:26:48.339Z,74.72
2022-12-05T15:29:27.095Z,74.64
2022-12-05T15:31:59.332Z,74.80
2022-12-05T15:34:29.880Z,74.90
2022-12-05T15:37:01.545Z,74.66
2022-12-05T15:40:02.168Z,75.19
2022-12-05T15:42:46.093Z,75.15
2022-12-05T15:45:23.842Z,75.29
2022-12-05T15:47:54.255Z,75.18
2022-12-05T15:50:35.178Z,75.18
2022-12-05T15:53:06.460Z,74.85
2022-12-05T15:55:39.412Z,75.24
2022-12-05T15:58:13.388Z,74.91
2022-12-05T16:00:45.895Z,75.11
2022-12-05T16:03:17.139Z,75.18
2022-12-05T16:05:51.899Z,75.12
2022-12-05T16:08:19.783Z,75.40
2022-12-05T16:10:48.558Z,75.03
2022-12-05T16:13:19.946Z,75.30
2022-12-05T16:15:54.244Z,75.16
2022-12-05T16:18:27.790Z,75.18
2022-12-05T16:20:55.056Z,74.91
2022-12-05T16:23:26.037Z,75.16
2022-12-05T16:26:09.843Z,75.19
2022-12-05T16:28:37.248Z,75.27
2022-12-05T16:31:06.763Z,75.61
2022-12-05T16:33:36.624Z,75.27
2022-12-05T16:36:08.020Z,75.41
2022-12-05T16:38:36.616Z,75.31
2022-12-05T16:41:07.245Z,75.03
2022-12-05T16:43:45.137Z,75.34
2022-12-05T16:46:43.087Z,75.60
2022-12-05T16:49:35.026Z,75.45
2022-12-05T16:52:12.539Z,75.37
2022-12-05T16:54:40.074Z,75.41
2022-12-05T16:57:14.166Z,75.75
2022-12-05T16:59:43.190Z,75.80
2022-12-05T17:02:14.737Z,75.72
2022-12-05T17:04:42.212Z,75.68
2022-12-05T17:07:09.958Z,75.74
2022-12-05T17:09:37.365Z,75.74
2022-12-05T17:12:12.027Z,75.98
2022-12-05T17:14:39.306Z,76.03
2022-12-05T17:17:12.694Z,75.94
2022-12-05T17:19:40.126Z,76.11
2022-12-05T17:22:07.520Z,76.22
2022-12-05T17:24:34.892Z,76.15
2022-12-05T17:27:02.529Z,76.25
2022-12-05T17:29:35.720Z,76.06
2022-12-05T17:32:03.441Z,76.25
2022-12-05T17:34:30.904Z,76.28
2022-12-05T17:36:58.237Z,76.20
2022-12-05T17:39:28.596Z,75.98
2022-12-05T17:41:56.344Z,75.88
2022-12-05T17:44:23.841Z,76.12
2022-12-05T17:46:52.633Z,76.36
2022-12-05T17:49:20.227Z,76.16
2022-12-05T17:52:19.952Z,76.20
2022-12-05T17:54:35.864Z,75.80
2022-12-05T17:57:03.212Z,75.83
2022-12-05T17:59:30.577Z,76.07
2022-12-05T18:01:59.183Z,75.95
2022-12-05T18:04:26.526Z,76.10
2022-12-05T18:06:54.394Z,76.19
2022-12-05T18:09:21.741Z,76.21
2022-12-05T18:11:49.017Z,76.16
2022-12-05T18:14:16.613Z,76.22
2022-12-05T18:16:46.895Z,76.17
2022-12-05T18:19:16.532Z,76.64
2022-12-05T18:21:43.795Z,76.46
2022-12-05T18:24:11.253Z,76.53
2022-12-05T18:26:38.789Z,76.31
2022-12-05T18:29:06.090Z,75.96
2022-12-05T18:31:33.466Z,76.44
2022-12-05T18:34:01.038Z,76.40
2022-12-05T18:36:29.677Z,76.27
2022-12-05T18:38:57.871Z,76.34
2022-12-05T18:41:27.276Z,76.41
2022-12-05T18:43:54.963Z,76.63
2022-12-05T18:46:22.496Z,76.37
2022-12-05T18:48:50.024Z,76.15
2022-12-05T18:51:20.711Z,76.70
2022-12-05T18:53:54.195Z,76.30
2022-12-05T18:56:24.184Z,76.02
2022-12-05T18:58:57.156Z,76.34
2022-12-05T19:01:25.757Z,76.39
2022-12-05T19:03:53.643Z,76.13
2022-12-05T19:06:23.140Z,76.39
2022-12-05T19:08:54.196Z,76.20
2022-12-05T19:11:21.746Z,76.46
2022-12-05T19:13:49.528Z,76.33
2022-12-05T19:16:18.761Z,76.35
2022-12-05T19:18:47.454Z,76.05
2022-12-05T19:21:14.885Z,76.23
2022-12-05T19:23:42.097Z,76.11
2022-12-05T19:26:11.088Z,76.43
2022-12-05T19:28:38.836Z,76.09
2022-12-05T19:31:08.819Z,76.01
2022-12-05T19:33:37.879Z,76.40
2022-12-05T19:36:07.487Z,76.48
2022-12-05T19:38:35.285Z,76.30
2022-12-05T19:41:03.605Z,76.27
2022-12-05T19:43:34.195Z,76.35
2022-12-05T19:46:04.643Z,76.12
2022-12-05T19:48:33.679Z,76.31
2022-12-05T19:51:01.696Z,76.41
2022-12-05T19:53:30.908Z,76.29
2022-12-05T19:56:01.804Z,76.12
2022-12-05T19:58:33.292Z,76.28
2022-12-05T20:01:07.412Z,76.10
2022-12-05T20:03:34.692Z,76.38
2022-12-05T20:06:02.204Z,76.26
2022-12-05T20:08:29.612Z,76.49
2022-12-05T20:10:56.868Z,76.60
2022-12-05T20:13:46.078Z,76.35
2022-12-05T20:16:15.057Z,76.67
2022-12-05T20:18:42.562Z,76.52
2022-12-05T20:21:12.021Z,76.37
2022-12-05T20:23:39.724Z,76.54
2022-12-05T20:26:09.100Z,76.44
2022-12-05T20:28:36.963Z,76.66
2022-12-05T20:31:06.439Z,76.73
2022-12-05T20:33:36.210Z,76.56
2022-12-05T20:36:05.432Z,76.58
2022-12-05T20:38:33.006Z,76.85
2022-12-05T20:41:00.800Z,76.64
2022-12-05T20:43:29.012Z,76.41
2022-12-05T20:45:57.325Z,76.75
2022-12-05T20:48:26.246Z,76.59
2022-12-05T20:50:55.298Z,76.37
2022-12-05T20:53:26.054Z,76.66
2022-12-05T20:55:53.369Z,76.33
2022-12-05T20:58:20.702Z,76.67
2022-12-05T21:00:48.047Z,76.22
2022-12-05T21:03:17.412Z,76.54
2022-12-05T21:05:45.011Z,76.59
2022-12-05T21:08:14.116Z,76.51
2022-12-05T21:10:44.519Z,76.16
2022-12-05T21:13:11.963Z,76.13
2022-12-05T21:15:39.300Z,76.04
2022-12-05T21:18:06.548Z,75.82
2022-12-05T21:20:37.614Z,75.99
2022-12-05T21:23:09.172Z,75.89
2022-12-05T21:25:37.942Z,75.81
2022-12-05T21:28:05.398Z,75.97
2022-12-05T21:30:34.512Z,76.00
2022-12-05T21:33:01.701Z,76.14
2022-12-05T21:35:28.959Z,75.99
2022-12-05T21:37:56.292Z,75.91
2022-12-05T21:40:23.554Z,75.71
2022-12-05T21:42:52.342Z,75.63
2022-12-05T21:45:19.645Z,76.17
2022-12-05T21:47:47.169Z,76.02
2022-12-05T21:50:14.593Z,76.00
2022-12-05T21:52:41.939Z,76.05
2022-12-05T21:55:10.651Z,76.24
2022-12-05T21:57:40.648Z,76.16
2022-12-05T22:00:10.843Z,75.82
2022-12-05T22:02:38.365Z,75.96
2022-12-05T22:05:06.728Z,75.89
2022-12-05T22:07:34.028Z,76.17
2022-12-05T22:10:01.751Z,76.41
2022-12-05T22:12:33.128Z,76.00
2022-12-05T22:15:01.345Z,76.37
2022-12-05T22:17:31.945Z,76.28
2022-12-05T22:19:59.449Z,76.13
2022-12-05T22:22:27.022Z,76.33
2022-12-05T22:24:54.458Z,76.19
2022-12-05T22:27:21.787Z,76.17
2022-12-05T22:29:52.741Z,76.38
2022-12-05T22:32:20.397Z,76.18
2022-12-05T22:34:49.073Z,76.44
2022-12-05T22:37:16.636Z,75.90
2022-12-05T22:39:43.925Z,76.31
2022-12-05T22:42:11.200Z,76.20
2022-12-05T22:44:38.547Z,75.90
2022-12-05T22:47:06.122Z,76.13
2022-12-05T22:49:33.469Z,76.30
2022-12-05T22:52:02.277Z,76.12
2022-12-05T22:54:30.457Z,76.28
2022-12-05T22:56:57.918Z,76.47
2022-12-05T22:59:25.275Z,76.19
2022-12-05T23:01:52.579Z,76.30
2022-12-05T23:04:20.390Z,76.04
2022-12-05T23:06:47.730Z,76.05
2022-12-05T23:09:16.542Z,75.97
2022-12-05T23:11:43.972Z,76.20
2022-12-05T23:14:11.330Z,76.12
2022-12-05T23:16:39.244Z,76.09
2022-12-05T23:19:06.502Z,75.96
2022-12-05T23:21:35.696Z,75.83
2022-12-05T23:24:05.494Z,75.90
2022-12-05T23:26:36.818Z,75.99
2022-12-05T23:29:04.633Z,76.12
2022-12-05T23:31:32.108Z,75.88
2022-12-05T23:34:03.131Z,75.92
2022-12-05T23:36:32.079Z,75.85
2022-12-05T23:38:59.453Z,75.93
2022-12-05T23:41:27.539Z,75.81
2022-12-05T23:43:56.955Z,76.27
2022-12-05T23:46:26.215Z,76.00
2022-12-05T23:48:55.209Z,75.97
2022-12-05T23:51:24.442Z,76.05
2022-12-05T23:53:53.600Z,75.88
2022-12-05T23:56:25.408Z,75.85
2022-12-05T23:58:54.000Z,75.71
